sensor_id;sensor_type;location;lat;lon;timestamp;temperature;humidity
2130;DHT22;1071;52.544;13.374;2022-09-09T00:01:23;18.30;99.90
2130;DHT22;1071;52.544;13.374;2022-09-09T00:04:00;18.30;99.90
2130;DHT22;1071;52.544;13.374;2022-09-09T00:06:32;18.30;99.90
2130;DHT22;1071;52.544;13.374;2022-09-09T00:09:04;18.30;99.90
2130;DHT22;1071;52.544;13.374;2022-09-09T00:11:40;18.30;99.90
2130;DHT22;1071;52.544;13.374;2022-09-09T00:14:19;18.30;99.90
2130;DHT22;1071;52.544;13.374;2022-09-09T00:16:52;18.20;99.90
2130;DHT22;1071;52.544;13.374;2022-09-09T00:19:26;18.20;99.90
2130;DHT22;1071;52.544;13.374;2022-09-09T00:22:03;18.20;99.90
2130;DHT22;1071;52.544;13.374;2022-09-09T00:24:37;18.20;99.90
2130;DHT22;1071;52.544;13.374;2022-09-09T00:27:13;18.20;99.90
2130;DHT22;1071;52.544;13.374;2022-09-09T00:29:50;18.20;99.90
2130;DHT22;1071;52.544;13.374;2022-09-09T00:32:30;18.20;99.90
2130;DHT22;1071;52.544;13.374;2022-09-09T00:35:02;18.10;99.90
2130;DHT22;1071;52.544;13.374;2022-09-09T00:37:37;18.10;99.90
2130;DHT22;1071;52.544;13.374;2022-09-09T00:40:18;18.10;99.90
2130;DHT22;1071;52.544;13.374;2022-09-09T00:42:59;18.10;99.90
2130;DHT22;1071;52.544;13.374;2022-09-09T00:45:55;18.10;99.90
2130;DHT22;1071;52.544;13.374;2022-09-09T00:48:35;18.00;99.90
2130;DHT22;1071;52.544;13.374;2022-09-09T00:51:11;18.00;99.90
2130;DHT22;1071;52.544;13.374;2022-09-09T00:54:03;18.00;99.90
2130;DHT22;1071;52.544;13.374;2022-09-09T00:56:37;18.00;99.90
2130;DHT22;1071;52.544;13.374;2022-09-09T00:59:16;18.00;99.90
2130;DHT22;1071;52.544;13.374;2022-09-09T01:01:45;17.90;99.90
2130;DHT22;1071;52.544;13.374;2022-09-09T01:04:16;17.90;99.90
2130;DHT22;1071;52.544;13.374;2022-09-09T01:06:51;17.90;99.90
2130;DHT22;1071;52.544;13.374;2022-09-09T01:09:23;17.90;99.90
2130;DHT22;1071;52.544;13.374;2022-09-09T01:11:59;17.90;99.90
2130;DHT22;1071;52.544;13.374;2022-09-09T01:14:40;17.90;99.90
2130;DHT22;1071;52.544;13.374;2022-09-09T01:17:14;17.90;99.90
2130;DHT22;1071;52.544;13.374;2022-09-09T01:19:55;17.90;99.90
2130;DHT22;1071;52.544;13.374;2022-09-09T01:22:31;17.90;99.90
2130;DHT22;1071;52.544;13.374;2022-09-09T01:25:25;17.90;99.90
2130;DHT22;1071;52.544;13.374;2022-09-09T01:27:59;17.90;99.90
2130;DHT22;1071;52.544;13.374;2022-09-09T01:30:27;17.90;99.90
2130;DHT22;1071;52.544;13.374;2022-09-09T01:32:56;17.90;99.90
2130;DHT22;1071;52.544;13.374;2022-09-09T01:35:37;17.90;99.90
2130;DHT22;1071;52.544;13.374;2022-09-09T01:38:06;17.90;99.90
2130;DHT22;1071;52.544;13.374;2022-09-09T01:40:33;17.90;99.90
2130;DHT22;1071;52.544;13.374;2022-09-09T01:43:03;17.80;99.90
2130;DHT22;1071;52.544;13.374;2022-09-09T01:45:30;17.80;99.90
2130;DHT22;1071;52.544;13.374;2022-09-09T01:47:58;17.80;99.90
2130;DHT22;1071;52.544;13.374;2022-09-09T01:50:26;17.80;99.90
2130;DHT22;1071;52.544;13.374;2022-09-09T01:52:56;17.80;99.90
2130;DHT22;1071;52.544;13.374;2022-09-09T01:55:29;17.80;99.90
2130;DHT22;1071;52.544;13.374;2022-09-09T01:58:13;17.80;99.90
2130;DHT22;1071;52.544;13.374;2022-09-09T02:00:48;17.80;99.90
2130;DHT22;1071;52.544;13.374;2022-09-09T02:03:24;17.80;99.90
2130;DHT22;1071;52.544;13.374;2022-09-09T02:06:02;17.80;99.90
2130;DHT22;1071;52.544;13.374;2022-09-09T02:08:39;17.70;99.90
2130;DHT22;1071;52.544;13.374;2022-09-09T02:11:10;17.70;99.90
2130;DHT22;1071;52.544;13.374;2022-09-09T02:13:40;17.70;99.90
2130;DHT22;1071;52.544;13.374;2022-09-09T02:16:13;17.70;99.90
2130;DHT22;1071;52.544;13.374;2022-09-09T02:18:46;17.70;99.90
2130;DHT22;1071;52.544;13.374;2022-09-09T02:21:15;17.70;99.90
2130;DHT22;1071;52.544;13.374;2022-09-09T02:23:45;17.70;99.90
2130;DHT22;1071;52.544;13.374;2022-09-09T02:26:14;17.70;99.90
2130;DHT22;1071;52.544;13.374;2022-09-09T02:31:18;17.60;99.90
2130;DHT22;1071;52.544;13.374;2022-09-09T02:33:50;17.60;99.90
2130;DHT22;1071;52.544;13.374;2022-09-09T02:36:19;17.60;99.90
2130;DHT22;1071;52.544;13.374;2022-09-09T02:38:48;17.60;99.90
2130;DHT22;1071;52.544;13.374;2022-09-09T02:41:19;17.50;99.90
2130;DHT22;1071;52.544;13.374;2022-09-09T02:43:48;17.60;99.90
2130;DHT22;1071;52.544;13.374;2022-09-09T02:46:29;17.50;99.90
2130;DHT22;1071;52.544;13.374;2022-09-09T02:49:01;17.50;99.90
2130;DHT22;1071;52.544;13.374;2022-09-09T02:51:37;17.50;99.90
2130;DHT22;1071;52.544;13.374;2022-09-09T02:54:12;17.50;99.90
2130;DHT22;1071;52.544;13.374;2022-09-09T02:56:47;17.50;99.90
2130;DHT22;1071;52.544;13.374;2022-09-09T02:59:17;17.50;99.90
2130;DHT22;1071;52.544;13.374;2022-09-09T03:01:45;17.50;99.90
2130;DHT22;1071;52.544;13.374;2022-09-09T03:04:12;17.50;99.90
2130;DHT22;1071;52.544;13.374;2022-09-09T03:06:42;17.50;99.90
2130;DHT22;1071;52.544;13.374;2022-09-09T03:09:10;17.40;99.90
2130;DHT22;1071;52.544;13.374;2022-09-09T03:11:37;17.50;99.90
2130;DHT22;1071;52.544;13.374;2022-09-09T03:14:05;17.40;99.90
2130;DHT22;1071;52.544;13.374;2022-09-09T03:16:35;17.40;99.90
2130;DHT22;1071;52.544;13.374;2022-09-09T03:19:02;17.40;99.90
2130;DHT22;1071;52.544;13.374;2022-09-09T03:21:29;17.40;99.90
2130;DHT22;1071;52.544;13.374;2022-09-09T03:24:00;17.40;99.90
2130;DHT22;1071;52.544;13.374;2022-09-09T03:26:28;17.40;99.90
2130;DHT22;1071;52.544;13.374;2022-09-09T03:28:56;17.40;99.90
2130;DHT22;1071;52.544;13.374;2022-09-09T03:31:23;17.40;99.90
2130;DHT22;1071;52.544;13.374;2022-09-09T03:33:51;17.40;99.90
2130;DHT22;1071;52.544;13.374;2022-09-09T03:36:18;17.40;99.90
2130;DHT22;1071;52.544;13.374;2022-09-09T03:38:45;17.30;99.90
2130;DHT22;1071;52.544;13.374;2022-09-09T03:41:12;17.30;99.90
2130;DHT22;1071;52.544;13.374;2022-09-09T03:43:39;17.30;99.90
2130;DHT22;1071;52.544;13.374;2022-09-09T03:46:07;17.30;99.90
2130;DHT22;1071;52.544;13.374;2022-09-09T03:48:35;17.30;99.90
2130;DHT22;1071;52.544;13.374;2022-09-09T03:51:04;17.30;99.90
2130;DHT22;1071;52.544;13.374;2022-09-09T03:53:31;17.30;99.90
2130;DHT22;1071;52.544;13.374;2022-09-09T03:55:58;17.30;99.90
2130;DHT22;1071;52.544;13.374;2022-09-09T03:58:27;17.30;99.90
2130;DHT22;1071;52.544;13.374;2022-09-09T04:00:55;17.20;99.90
2130;DHT22;1071;52.544;13.374;2022-09-09T04:03:23;17.20;99.90
2130;DHT22;1071;52.544;13.374;2022-09-09T04:05:51;17.20;99.90
2130;DHT22;1071;52.544;13.374;2022-09-09T04:08:20;17.20;99.90
2130;DHT22;1071;52.544;13.374;2022-09-09T04:10:48;17.20;99.90
2130;DHT22;1071;52.544;13.374;2022-09-09T04:13:16;17.20;99.90
2130;DHT22;1071;52.544;13.374;2022-09-09T04:15:44;17.20;99.90
2130;DHT22;1071;52.544;13.374;2022-09-09T04:18:16;17.20;99.90
2130;DHT22;1071;52.544;13.374;2022-09-09T04:20:46;17.20;99.90
2130;DHT22;1071;52.544;13.374;2022-09-09T04:23:14;17.20;99.90
2130;DHT22;1071;52.544;13.374;2022-09-09T04:25:46;17.20;99.90
2130;DHT22;1071;52.544;13.374;2022-09-09T04:28:14;17.20;99.90
2130;DHT22;1071;52.544;13.374;2022-09-09T04:30:42;17.20;99.90
2130;DHT22;1071;52.544;13.374;2022-09-09T04:33:10;17.20;99.90
2130;DHT22;1071;52.544;13.374;2022-09-09T04:35:38;17.20;99.90
2130;DHT22;1071;52.544;13.374;2022-09-09T04:38:08;17.20;99.90
2130;DHT22;1071;52.544;13.374;2022-09-09T04:40:36;17.20;99.90
2130;DHT22;1071;52.544;13.374;2022-09-09T04:43:10;17.20;99.90
2130;DHT22;1071;52.544;13.374;2022-09-09T04:45:39;17.20;99.90
2130;DHT22;1071;52.544;13.374;2022-09-09T04:48:06;17.20;99.90
2130;DHT22;1071;52.544;13.374;2022-09-09T04:50:34;17.20;99.90
2130;DHT22;1071;52.544;13.374;2022-09-09T04:53:01;17.20;99.90
2130;DHT22;1071;52.544;13.374;2022-09-09T04:55:29;17.20;99.90
2130;DHT22;1071;52.544;13.374;2022-09-09T04:58:06;17.30;99.90
2130;DHT22;1071;52.544;13.374;2022-09-09T05:00:35;17.30;99.90
2130;DHT22;1071;52.544;13.374;2022-09-09T05:03:18;17.30;99.90
2130;DHT22;1071;52.544;13.374;2022-09-09T05:05:45;17.30;99.90
2130;DHT22;1071;52.544;13.374;2022-09-09T05:08:12;17.30;99.90
2130;DHT22;1071;52.544;13.374;2022-09-09T05:10:40;17.30;99.90
2130;DHT22;1071;52.544;13.374;2022-09-09T05:13:07;17.30;99.90
2130;DHT22;1071;52.544;13.374;2022-09-09T05:15:36;17.30;99.90
2130;DHT22;1071;52.544;13.374;2022-09-09T05:18:03;17.30;99.90
2130;DHT22;1071;52.544;13.374;2022-09-09T05:20:30;17.30;99.90
2130;DHT22;1071;52.544;13.374;2022-09-09T05:22:57;17.30;99.90
2130;DHT22;1071;52.544;13.374;2022-09-09T05:25:24;17.30;99.90
2130;DHT22;1071;52.544;13.374;2022-09-09T05:27:52;17.30;99.90
2130;DHT22;1071;52.544;13.374;2022-09-09T05:30:20;17.40;99.90
2130;DHT22;1071;52.544;13.374;2022-09-09T05:32:48;17.40;99.90
2130;DHT22;1071;52.544;13.374;2022-09-09T05:35:18;17.40;99.90
2130;DHT22;1071;52.544;13.374;2022-09-09T05:37:46;17.40;99.90
2130;DHT22;1071;52.544;13.374;2022-09-09T05:40:13;17.50;99.90
2130;DHT22;1071;52.544;13.374;2022-09-09T05:42:41;17.40;99.90
2130;DHT22;1071;52.544;13.374;2022-09-09T05:45:08;17.50;99.90
2130;DHT22;1071;52.544;13.374;2022-09-09T05:47:36;17.50;99.90
2130;DHT22;1071;52.544;13.374;2022-09-09T05:50:07;17.50;99.90
2130;DHT22;1071;52.544;13.374;2022-09-09T05:52:34;17.50;99.90
2130;DHT22;1071;52.544;13.374;2022-09-09T05:55:02;17.50;99.90
2130;DHT22;1071;52.544;13.374;2022-09-09T05:57:30;17.60;99.90
2130;DHT22;1071;52.544;13.374;2022-09-09T05:59:58;17.60;99.90
2130;DHT22;1071;52.544;13.374;2022-09-09T06:02:29;17.60;99.90
2130;DHT22;1071;52.544;13.374;2022-09-09T06:05:17;17.60;99.90
2130;DHT22;1071;52.544;13.374;2022-09-09T06:07:52;17.60;99.90
2130;DHT22;1071;52.544;13.374;2022-09-09T06:10:19;17.70;99.90
2130;DHT22;1071;52.544;13.374;2022-09-09T06:12:46;17.70;99.90
2130;DHT22;1071;52.544;13.374;2022-09-09T06:15:13;17.80;99.90
2130;DHT22;1071;52.544;13.374;2022-09-09T06:17:45;17.80;99.90
2130;DHT22;1071;52.544;13.374;2022-09-09T06:20:24;17.80;99.90
2130;DHT22;1071;52.544;13.374;2022-09-09T06:22:51;17.80;99.90
2130;DHT22;1071;52.544;13.374;2022-09-09T06:25:18;17.80;99.90
2130;DHT22;1071;52.544;13.374;2022-09-09T06:28:03;17.80;99.90
2130;DHT22;1071;52.544;13.374;2022-09-09T06:30:36;17.90;99.90
2130;DHT22;1071;52.544;13.374;2022-09-09T06:33:07;17.90;99.90
2130;DHT22;1071;52.544;13.374;2022-09-09T06:35:36;17.90;99.90
2130;DHT22;1071;52.544;13.374;2022-09-09T06:38:21;18.00;99.90
2130;DHT22;1071;52.544;13.374;2022-09-09T06:40:52;18.00;99.90
2130;DHT22;1071;52.544;13.374;2022-09-09T06:43:23;18.10;99.90
2130;DHT22;1071;52.544;13.374;2022-09-09T06:45:59;18.10;99.90
2130;DHT22;1071;52.544;13.374;2022-09-09T06:48:27;18.10;99.90
2130;DHT22;1071;52.544;13.374;2022-09-09T06:51:05;18.20;99.90
2130;DHT22;1071;52.544;13.374;2022-09-09T06:53:33;18.10;99.90
2130;DHT22;1071;52.544;13.374;2022-09-09T06:56:01;18.20;99.90
2130;DHT22;1071;52.544;13.374;2022-09-09T06:58:32;18.20;99.90
2130;DHT22;1071;52.544;13.374;2022-09-09T07:01:03;18.30;99.90
2130;DHT22;1071;52.544;13.374;2022-09-09T07:03:30;18.30;99.90
2130;DHT22;1071;52.544;13.374;2022-09-09T07:06:05;18.40;99.90
2130;DHT22;1071;52.544;13.374;2022-09-09T07:08:33;18.50;99.90
2130;DHT22;1071;52.544;13.374;2022-09-09T07:11:21;18.60;99.90
2130;DHT22;1071;52.544;13.374;2022-09-09T07:14:04;18.60;99.90
2130;DHT22;1071;52.544;13.374;2022-09-09T07:16:31;18.70;99.90
2130;DHT22;1071;52.544;13.374;2022-09-09T07:18:58;18.80;99.90
2130;DHT22;1071;52.544;13.374;2022-09-09T07:21:37;18.80;99.90
2130;DHT22;1071;52.544;13.374;2022-09-09T07:24:13;18.80;99.90
2130;DHT22;1071;52.544;13.374;2022-09-09T07:29:44;18.90;99.90
2130;DHT22;1071;52.544;13.374;2022-09-09T07:32:17;19.10;99.90
2130;DHT22;1071;52.544;13.374;2022-09-09T07:34:49;19.20;99.90
2130;DHT22;1071;52.544;13.374;2022-09-09T07:37:35;19.20;99.90
2130;DHT22;1071;52.544;13.374;2022-09-09T07:40:03;19.30;99.90
2130;DHT22;1071;52.544;13.374;2022-09-09T07:42:31;19.40;99.90
2130;DHT22;1071;52.544;13.374;2022-09-09T07:45:06;19.40;99.90
2130;DHT22;1071;52.544;13.374;2022-09-09T07:47:36;19.50;99.90
2130;DHT22;1071;52.544;13.374;2022-09-09T07:50:06;19.60;99.90
2130;DHT22;1071;52.544;13.374;2022-09-09T07:52:35;19.70;99.90
2130;DHT22;1071;52.544;13.374;2022-09-09T07:55:03;19.80;99.90
2130;DHT22;1071;52.544;13.374;2022-09-09T07:57:38;19.90;99.90
2130;DHT22;1071;52.544;13.374;2022-09-09T08:00:19;20.00;99.90
2130;DHT22;1071;52.544;13.374;2022-09-09T08:02:48;20.10;99.90
2130;DHT22;1071;52.544;13.374;2022-09-09T08:05:26;20.10;99.90
2130;DHT22;1071;52.544;13.374;2022-09-09T08:08:01;20.30;99.90
2130;DHT22;1071;52.544;13.374;2022-09-09T08:10:33;20.40;99.90
2130;DHT22;1071;52.544;13.374;2022-09-09T08:13:00;20.40;99.90
2130;DHT22;1071;52.544;13.374;2022-09-09T08:16:05;20.60;99.90
2130;DHT22;1071;52.544;13.374;2022-09-09T08:18:18;20.70;99.90
2130;DHT22;1071;52.544;13.374;2022-09-09T08:20:45;20.70;99.90
2130;DHT22;1071;52.544;13.374;2022-09-09T08:23:14;20.70;99.90
2130;DHT22;1071;52.544;13.374;2022-09-09T08:25:53;20.70;99.90
2130;DHT22;1071;52.544;13.374;2022-09-09T08:28:38;20.80;99.90
2130;DHT22;1071;52.544;13.374;2022-09-09T08:31:18;20.80;99.90
2130;DHT22;1071;52.544;13.374;2022-09-09T08:33:58;20.80;99.90
2130;DHT22;1071;52.544;13.374;2022-09-09T08:36:51;20.80;99.90
2130;DHT22;1071;52.544;13.374;2022-09-09T08:39:30;20.80;99.90
2130;DHT22;1071;52.544;13.374;2022-09-09T08:42:44;20.80;99.90
2130;DHT22;1071;52.544;13.374;2022-09-09T08:45:27;20.90;99.90
2130;DHT22;1071;52.544;13.374;2022-09-09T08:48:14;20.90;99.90
2130;DHT22;1071;52.544;13.374;2022-09-09T08:50:51;21.00;99.90
2130;DHT22;1071;52.544;13.374;2022-09-09T08:53:33;21.00;99.90
2130;DHT22;1071;52.544;13.374;2022-09-09T08:56:55;21.00;99.90
2130;DHT22;1071;52.544;13.374;2022-09-09T08:59:29;21.00;99.90
2130;DHT22;1071;52.544;13.374;2022-09-09T09:02:38;20.90;99.90
2130;DHT22;1071;52.544;13.374;2022-09-09T09:05:46;21.00;99.90
2130;DHT22;1071;52.544;13.374;2022-09-09T09:08:42;21.00;99.90
2130;DHT22;1071;52.544;13.374;2022-09-09T09:11:21;21.00;99.90
2130;DHT22;1071;52.544;13.374;2022-09-09T09:13:53;21.10;99.90
2130;DHT22;1071;52.544;13.374;2022-09-09T09:16:29;21.10;99.90
2130;DHT22;1071;52.544;13.374;2022-09-09T09:18:58;21.10;99.90
2130;DHT22;1071;52.544;13.374;2022-09-09T09:21:32;21.20;99.90
2130;DHT22;1071;52.544;13.374;2022-09-09T09:24:31;21.20;99.90
2130;DHT22;1071;52.544;13.374;2022-09-09T09:27:12;21.20;99.90
2130;DHT22;1071;52.544;13.374;2022-09-09T09:29:40;21.30;99.90
2130;DHT22;1071;52.544;13.374;2022-09-09T09:32:15;21.40;99.90
2130;DHT22;1071;52.544;13.374;2022-09-09T09:34:58;21.50;99.90
2130;DHT22;1071;52.544;13.374;2022-09-09T09:37:39;21.60;99.90
2130;DHT22;1071;52.544;13.374;2022-09-09T09:40:22;21.70;99.90
2130;DHT22;1071;52.544;13.374;2022-09-09T09:43:36;21.80;99.90
2130;DHT22;1071;52.544;13.374;2022-09-09T09:47:04;21.90;99.90
2130;DHT22;1071;52.544;13.374;2022-09-09T09:56:36;22.00;99.90
2130;DHT22;1071;52.544;13.374;2022-09-09T10:06:13;22.00;99.90
2130;DHT22;1071;52.544;13.374;2022-09-09T10:08:48;22.00;99.90
2130;DHT22;1071;52.544;13.374;2022-09-09T10:11:30;22.00;99.90
2130;DHT22;1071;52.544;13.374;2022-09-09T10:14:21;22.00;99.90
2130;DHT22;1071;52.544;13.374;2022-09-09T10:17:25;22.00;99.90
2130;DHT22;1071;52.544;13.374;2022-09-09T10:20:25;22.10;99.90
2130;DHT22;1071;52.544;13.374;2022-09-09T10:23:06;22.10;99.90
2130;DHT22;1071;52.544;13.374;2022-09-09T10:25:55;22.10;99.90
2130;DHT22;1071;52.544;13.374;2022-09-09T10:28:51;22.20;99.90
2130;DHT22;1071;52.544;13.374;2022-09-09T10:31:27;22.30;99.90
2130;DHT22;1071;52.544;13.374;2022-09-09T10:34:06;22.30;99.90
2130;DHT22;1071;52.544;13.374;2022-09-09T10:36:47;22.40;99.90
2130;DHT22;1071;52.544;13.374;2022-09-09T10:39:31;22.40;99.90
2130;DHT22;1071;52.544;13.374;2022-09-09T10:42:08;22.50;99.90
2130;DHT22;1071;52.544;13.374;2022-09-09T10:44:57;22.50;99.90
2130;DHT22;1071;52.544;13.374;2022-09-09T10:47:49;22.50;99.90
2130;DHT22;1071;52.544;13.374;2022-09-09T10:50:50;22.50;99.90
2130;DHT22;1071;52.544;13.374;2022-09-09T10:53:28;22.60;99.90
2130;DHT22;1071;52.544;13.374;2022-09-09T10:56:06;22.60;99.90
2130;DHT22;1071;52.544;13.374;2022-09-09T10:58:40;22.70;99.90
2130;DHT22;1071;52.544;13.374;2022-09-09T11:01:17;22.80;99.90
2130;DHT22;1071;52.544;13.374;2022-09-09T11:03:49;22.90;99.90
2130;DHT22;1071;52.544;13.374;2022-09-09T11:06:20;22.90;99.90
2130;DHT22;1071;52.544;13.374;2022-09-09T11:08:52;23.00;99.90
2130;DHT22;1071;52.544;13.374;2022-09-09T11:11:27;23.10;99.90
2130;DHT22;1071;52.544;13.374;2022-09-09T11:14:03;23.10;99.90
2130;DHT22;1071;52.544;13.374;2022-09-09T11:16:40;23.20;99.90
2130;DHT22;1071;52.544;13.374;2022-09-09T11:19:14;23.20;99.90
2130;DHT22;1071;52.544;13.374;2022-09-09T11:21:47;23.20;99.90
2130;DHT22;1071;52.544;13.374;2022-09-09T11:24:20;23.20;99.90
2130;DHT22;1071;52.544;13.374;2022-09-09T11:26:58;23.20;99.90
2130;DHT22;1071;52.544;13.374;2022-09-09T11:29:45;23.20;99.90
2130;DHT22;1071;52.544;13.374;2022-09-09T11:32:40;23.20;99.90
2130;DHT22;1071;52.544;13.374;2022-09-09T11:35:26;23.30;99.90
2130;DHT22;1071;52.544;13.374;2022-09-09T11:38:16;23.30;99.90
2130;DHT22;1071;52.544;13.374;2022-09-09T11:40:45;23.30;99.90
2130;DHT22;1071;52.544;13.374;2022-09-09T11:43:20;23.20;99.90
2130;DHT22;1071;52.544;13.374;2022-09-09T11:45:52;23.30;99.90
2130;DHT22;1071;52.544;13.374;2022-09-09T11:48:26;23.30;99.90
2130;DHT22;1071;52.544;13.374;2022-09-09T11:51:04;23.30;99.90
2130;DHT22;1071;52.544;13.374;2022-09-09T11:53:36;23.40;99.90
2130;DHT22;1071;52.544;13.374;2022-09-09T11:56:24;23.40;99.90
2130;DHT22;1071;52.544;13.374;2022-09-09T11:59:05;23.50;99.90
2130;DHT22;1071;52.544;13.374;2022-09-09T12:01:38;23.50;99.90
2130;DHT22;1071;52.544;13.374;2022-09-09T12:04:16;23.50;99.90
2130;DHT22;1071;52.544;13.374;2022-09-09T12:06:46;23.60;99.90
2130;DHT22;1071;52.544;13.374;2022-09-09T12:09:22;23.60;99.90
2130;DHT22;1071;52.544;13.374;2022-09-09T12:11:52;23.70;99.90
2130;DHT22;1071;52.544;13.374;2022-09-09T12:14:34;23.70;99.90
2130;DHT22;1071;52.544;13.374;2022-09-09T12:17:10;23.70;99.90
2130;DHT22;1071;52.544;13.374;2022-09-09T12:19:44;23.70;99.90
2130;DHT22;1071;52.544;13.374;2022-09-09T12:22:19;23.70;99.90
2130;DHT22;1071;52.544;13.374;2022-09-09T12:24:56;23.70;99.90
2130;DHT22;1071;52.544;13.374;2022-09-09T12:27:33;23.80;99.90
2130;DHT22;1071;52.544;13.374;2022-09-09T12:30:09;23.80;99.90
2130;DHT22;1071;52.544;13.374;2022-09-09T12:32:37;23.70;99.90
2130;DHT22;1071;52.544;13.374;2022-09-09T12:35:11;23.70;99.90
2130;DHT22;1071;52.544;13.374;2022-09-09T12:37:48;23.80;99.90
2130;DHT22;1071;52.544;13.374;2022-09-09T12:40:20;23.70;99.90
2130;DHT22;1071;52.544;13.374;2022-09-09T12:42:56;23.70;99.90
2130;DHT22;1071;52.544;13.374;2022-09-09T12:45:27;23.70;99.90
2130;DHT22;1071;52.544;13.374;2022-09-09T12:48:00;23.60;99.90
2130;DHT22;1071;52.544;13.374;2022-09-09T12:50:34;23.60;99.90
2130;DHT22;1071;52.544;13.374;2022-09-09T12:53:22;23.60;99.90
2130;DHT22;1071;52.544;13.374;2022-09-09T12:56:00;23.50;99.90
2130;DHT22;1071;52.544;13.374;2022-09-09T12:58:29;23.60;99.90
2130;DHT22;1071;52.544;13.374;2022-09-09T13:03:48;23.60;99.90
2130;DHT22;1071;52.544;13.374;2022-09-09T13:06:20;23.60;99.90
2130;DHT22;1071;52.544;13.374;2022-09-09T13:08:50;23.60;99.90
2130;DHT22;1071;52.544;13.374;2022-09-09T13:14:48;23.60;99.90
2130;DHT22;1071;52.544;13.374;2022-09-09T13:17:33;23.60;99.90
2130;DHT22;1071;52.544;13.374;2022-09-09T13:20:16;23.60;99.90
2130;DHT22;1071;52.544;13.374;2022-09-09T13:22:44;23.60;99.90
2130;DHT22;1071;52.544;13.374;2022-09-09T13:25:21;23.60;99.90
2130;DHT22;1071;52.544;13.374;2022-09-09T13:27:58;23.50;99.90
2130;DHT22;1071;52.544;13.374;2022-09-09T13:30:27;23.50;99.90
2130;DHT22;1071;52.544;13.374;2022-09-09T13:33:05;23.50;99.90
2130;DHT22;1071;52.544;13.374;2022-09-09T13:35:33;23.50;99.90
2130;DHT22;1071;52.544;13.374;2022-09-09T13:38:09;23.50;99.90
2130;DHT22;1071;52.544;13.374;2022-09-09T13:40:56;23.50;99.90
2130;DHT22;1071;52.544;13.374;2022-09-09T13:43:31;23.40;99.90
2130;DHT22;1071;52.544;13.374;2022-09-09T13:46:02;23.40;99.90
2130;DHT22;1071;52.544;13.374;2022-09-09T13:48:32;23.40;99.90
2130;DHT22;1071;52.544;13.374;2022-09-09T13:51:01;23.40;99.90
2130;DHT22;1071;52.544;13.374;2022-09-09T13:53:31;23.40;99.90
2130;DHT22;1071;52.544;13.374;2022-09-09T13:55:59;23.40;99.90
2130;DHT22;1071;52.544;13.374;2022-09-09T13:58:29;23.40;99.90
2130;DHT22;1071;52.544;13.374;2022-09-09T14:00:56;23.50;99.90
2130;DHT22;1071;52.544;13.374;2022-09-09T14:03:24;23.50;99.90
2130;DHT22;1071;52.544;13.374;2022-09-09T14:05:52;23.50;99.90
2130;DHT22;1071;52.544;13.374;2022-09-09T14:08:25;23.50;99.90
2130;DHT22;1071;52.544;13.374;2022-09-09T14:10:54;23.50;99.90
2130;DHT22;1071;52.544;13.374;2022-09-09T14:13:23;23.50;99.90
2130;DHT22;1071;52.544;13.374;2022-09-09T14:15:53;23.60;99.90
2130;DHT22;1071;52.544;13.374;2022-09-09T14:18:24;23.50;99.90
2130;DHT22;1071;52.544;13.374;2022-09-09T14:20:52;23.50;99.90
2130;DHT22;1071;52.544;13.374;2022-09-09T14:23:19;23.60;99.90
2130;DHT22;1071;52.544;13.374;2022-09-09T14:25:47;23.60;99.90
2130;DHT22;1071;52.544;13.374;2022-09-09T14:28:23;23.60;99.90
2130;DHT22;1071;52.544;13.374;2022-09-09T14:30:58;23.60;99.90
2130;DHT22;1071;52.544;13.374;2022-09-09T14:33:25;23.60;99.90
2130;DHT22;1071;52.544;13.374;2022-09-09T14:35:57;23.60;99.90
2130;DHT22;1071;52.544;13.374;2022-09-09T14:38:32;23.60;99.90
2130;DHT22;1071;52.544;13.374;2022-09-09T14:41:05;23.60;99.90
2130;DHT22;1071;52.544;13.374;2022-09-09T14:43:32;23.60;99.90
2130;DHT22;1071;52.544;13.374;2022-09-09T14:46:04;23.60;99.90
2130;DHT22;1071;52.544;13.374;2022-09-09T14:48:32;23.60;99.90
2130;DHT22;1071;52.544;13.374;2022-09-09T14:51:06;23.50;99.90
2130;DHT22;1071;52.544;13.374;2022-09-09T14:53:34;23.50;99.90
2130;DHT22;1071;52.544;13.374;2022-09-09T14:56:05;23.50;99.90
2130;DHT22;1071;52.544;13.374;2022-09-09T14:58:32;23.50;99.90
2130;DHT22;1071;52.544;13.374;2022-09-09T15:01:04;23.50;99.90
2130;DHT22;1071;52.544;13.374;2022-09-09T15:03:32;23.40;99.90
2130;DHT22;1071;52.544;13.374;2022-09-09T15:06:06;23.40;99.90
2130;DHT22;1071;52.544;13.374;2022-09-09T15:08:34;23.40;99.90
2130;DHT22;1071;52.544;13.374;2022-09-09T15:11:01;23.40;99.90
2130;DHT22;1071;52.544;13.374;2022-09-09T15:13:30;23.40;99.90
2130;DHT22;1071;52.544;13.374;2022-09-09T15:16:05;23.30;99.90
2130;DHT22;1071;52.544;13.374;2022-09-09T15:18:33;23.30;99.90
2130;DHT22;1071;52.544;13.374;2022-09-09T15:21:02;23.30;99.90
2130;DHT22;1071;52.544;13.374;2022-09-09T15:23:32;23.30;99.90
2130;DHT22;1071;52.544;13.374;2022-09-09T15:26:00;23.30;99.90
2130;DHT22;1071;52.544;13.374;2022-09-09T15:28:31;23.30;99.90
2130;DHT22;1071;52.544;13.374;2022-09-09T15:31:07;23.30;99.90
2130;DHT22;1071;52.544;13.374;2022-09-09T15:33:36;23.30;99.90
2130;DHT22;1071;52.544;13.374;2022-09-09T15:36:13;23.30;99.90
2130;DHT22;1071;52.544;13.374;2022-09-09T15:38:44;23.30;99.90
2130;DHT22;1071;52.544;13.374;2022-09-09T15:41:14;23.30;99.90
2130;DHT22;1071;52.544;13.374;2022-09-09T15:43:44;23.30;99.90
2130;DHT22;1071;52.544;13.374;2022-09-09T15:46:23;23.30;99.90
2130;DHT22;1071;52.544;13.374;2022-09-09T15:49:03;23.20;99.90
2130;DHT22;1071;52.544;13.374;2022-09-09T15:51:33;23.10;99.90
2130;DHT22;1071;52.544;13.374;2022-09-09T15:54:01;23.10;99.90
2130;DHT22;1071;52.544;13.374;2022-09-09T15:56:30;23.00;99.90
2130;DHT22;1071;52.544;13.374;2022-09-09T15:58:58;23.00;99.90
2130;DHT22;1071;52.544;13.374;2022-09-09T16:01:29;22.90;99.90
2130;DHT22;1071;52.544;13.374;2022-09-09T16:03:57;22.90;99.90
2130;DHT22;1071;52.544;13.374;2022-09-09T16:06:27;22.80;99.90
2130;DHT22;1071;52.544;13.374;2022-09-09T16:08:55;22.70;99.90
2130;DHT22;1071;52.544;13.374;2022-09-09T16:11:25;22.70;99.90
2130;DHT22;1071;52.544;13.374;2022-09-09T16:13:54;22.60;99.90
2130;DHT22;1071;52.544;13.374;2022-09-09T16:16:23;22.60;99.90
2130;DHT22;1071;52.544;13.374;2022-09-09T16:18:55;22.50;99.90
2130;DHT22;1071;52.544;13.374;2022-09-09T16:21:24;22.50;99.90
2130;DHT22;1071;52.544;13.374;2022-09-09T16:23:52;22.40;99.90
2130;DHT22;1071;52.544;13.374;2022-09-09T16:26:20;22.40;99.90
2130;DHT22;1071;52.544;13.374;2022-09-09T16:28:54;22.30;99.90
2130;DHT22;1071;52.544;13.374;2022-09-09T16:31:26;22.30;99.90
2130;DHT22;1071;52.544;13.374;2022-09-09T16:34:00;22.30;99.90
2130;DHT22;1071;52.544;13.374;2022-09-09T16:36:30;22.20;99.90
2130;DHT22;1071;52.544;13.374;2022-09-09T16:39:00;22.20;99.90
2130;DHT22;1071;52.544;13.374;2022-09-09T16:41:28;22.20;99.90
2130;DHT22;1071;52.544;13.374;2022-09-09T16:43:58;22.10;99.90
2130;DHT22;1071;52.544;13.374;2022-09-09T16:46:29;22.10;99.90
2130;DHT22;1071;52.544;13.374;2022-09-09T16:48:58;22.10;99.90
2130;DHT22;1071;52.544;13.374;2022-09-09T16:51:28;22.10;99.90
2130;DHT22;1071;52.544;13.374;2022-09-09T16:53:58;22.00;99.90